sensor_id;sensor_type;location;lat;lon;timestamp;P1;durP1;ratioP1;P2;durP2;ratioP2
79088;SDS011;68489;50.286;9.452;2024-03-06T00:00:20;17.08;;;4.35;;
79088;SDS011;68489;50.286;9.452;2024-03-06T00:02:46;11.47;;;2.93;;
79088;SDS011;68489;50.286;9.452;2024-03-06T00:05:12;16.58;;;3.67;;
79088;SDS011;68489;50.286;9.452;2024-03-06T00:07:37;14.95;;;3.35;;
79088;SDS011;68489;50.286;9.452;2024-03-06T00:10:02;16.90;;;4.88;;
79088;SDS011;68489;50.286;9.452;2024-03-06T00:12:30;18.98;;;4.72;;
79088;SDS011;68489;50.286;9.452;2024-03-06T00:14:55;17.92;;;4.40;;
79088;SDS011;68489;50.286;9.452;2024-03-06T00:17:20;17.30;;;5.22;;
79088;SDS011;68489;50.286;9.452;2024-03-06T00:19:46;19.30;;;5.87;;
79088;SDS011;68489;50.286;9.452;2024-03-06T00:22:11;19.57;;;6.03;;
79088;SDS011;68489;50.286;9.452;2024-03-06T00:24:36;22.05;;;6.45;;
79088;SDS011;68489;50.286;9.452;2024-03-06T00:27:02;23.15;;;5.75;;
79088;SDS011;68489;50.286;9.452;2024-03-06T00:29:29;21.98;;;7.15;;
79088;SDS011;68489;50.286;9.452;2024-03-06T00:31:55;28.02;;;6.43;;
79088;SDS011;68489;50.286;9.452;2024-03-06T00:34:20;28.10;;;7.17;;
79088;SDS011;68489;50.286;9.452;2024-03-06T00:36:46;24.40;;;5.50;;
79088;SDS011;68489;50.286;9.452;2024-03-06T00:39:11;23.50;;;5.25;;
79088;SDS011;68489;50.286;9.452;2024-03-06T00:41:39;21.88;;;5.78;;
79088;SDS011;68489;50.286;9.452;2024-03-06T00:44:05;22.50;;;5.85;;
79088;SDS011;68489;50.286;9.452;2024-03-06T00:46:30;25.10;;;7.15;;
79088;SDS011;68489;50.286;9.452;2024-03-06T00:48:56;26.52;;;6.40;;
79088;SDS011;68489;50.286;9.452;2024-03-06T00:51:21;24.88;;;5.82;;
79088;SDS011;68489;50.286;9.452;2024-03-06T00:53:46;21.00;;;6.03;;
79088;SDS011;68489;50.286;9.452;2024-03-06T00:56:12;23.03;;;5.10;;
79088;SDS011;68489;50.286;9.452;2024-03-06T00:58:37;21.58;;;5.68;;
79088;SDS011;68489;50.286;9.452;2024-03-06T01:01:02;20.17;;;5.38;;
79088;SDS011;68489;50.286;9.452;2024-03-06T01:03:28;18.80;;;4.57;;
79088;SDS011;68489;50.286;9.452;2024-03-06T01:05:54;21.33;;;5.45;;
79088;SDS011;68489;50.286;9.452;2024-03-06T01:08:21;21.10;;;4.95;;
79088;SDS011;68489;50.286;9.452;2024-03-06T01:10:47;21.85;;;5.47;;
79088;SDS011;68489;50.286;9.452;2024-03-06T01:13:12;18.58;;;5.22;;
79088;SDS011;68489;50.286;9.452;2024-03-06T01:15:38;27.38;;;6.85;;
79088;SDS011;68489;50.286;9.452;2024-03-06T01:18:03;17.65;;;5.47;;
79088;SDS011;68489;50.286;9.452;2024-03-06T01:20:29;23.63;;;7.45;;
79088;SDS011;68489;50.286;9.452;2024-03-06T01:22:54;18.50;;;5.55;;
79088;SDS011;68489;50.286;9.452;2024-03-06T01:25:20;22.85;;;5.90;;
79088;SDS011;68489;50.286;9.452;2024-03-06T01:27:47;17.05;;;5.13;;
79088;SDS011;68489;50.286;9.452;2024-03-06T01:30:13;22.20;;;5.35;;
79088;SDS011;68489;50.286;9.452;2024-03-06T01:32:38;18.95;;;5.97;;
79088;SDS011;68489;50.286;9.452;2024-03-06T01:35:04;21.48;;;5.07;;
79088;SDS011;68489;50.286;9.452;2024-03-06T01:37:30;24.58;;;6.03;;
79088;SDS011;68489;50.286;9.452;2024-03-06T01:39:55;20.75;;;6.32;;
79088;SDS011;68489;50.286;9.452;2024-03-06T01:42:21;20.02;;;5.55;;
79088;SDS011;68489;50.286;9.452;2024-03-06T01:44:46;19.80;;;5.63;;
79088;SDS011;68489;50.286;9.452;2024-03-06T01:47:11;21.58;;;5.85;;
79088;SDS011;68489;50.286;9.452;2024-03-06T01:49:37;19.00;;;5.83;;
79088;SDS011;68489;50.286;9.452;2024-03-06T01:52:02;22.77;;;5.40;;
79088;SDS011;68489;50.286;9.452;2024-03-06T01:54:28;21.48;;;5.47;;
79088;SDS011;68489;50.286;9.452;2024-03-06T01:56:56;17.70;;;4.90;;
79088;SDS011;68489;50.286;9.452;2024-03-06T01:59:22;23.30;;;5.32;;
79088;SDS011;68489;50.286;9.452;2024-03-06T02:01:52;17.92;;;5.40;;
79088;SDS011;68489;50.286;9.452;2024-03-06T02:04:19;19.50;;;4.32;;
79088;SDS011;68489;50.286;9.452;2024-03-06T02:06:45;20.45;;;4.93;;
79088;SDS011;68489;50.286;9.452;2024-03-06T02:09:11;20.73;;;5.63;;
79088;SDS011;68489;50.286;9.452;2024-03-06T02:11:38;20.92;;;6.15;;
79088;SDS011;68489;50.286;9.452;2024-03-06T02:14:04;19.42;;;5.45;;
79088;SDS011;68489;50.286;9.452;2024-03-06T02:16:31;22.05;;;6.35;;
79088;SDS011;68489;50.286;9.452;2024-03-06T02:18:57;18.80;;;5.65;;
79088;SDS011;68489;50.286;9.452;2024-03-06T02:21:23;20.00;;;6.07;;
79088;SDS011;68489;50.286;9.452;2024-03-06T02:23:49;21.50;;;5.28;;
79088;SDS011;68489;50.286;9.452;2024-03-06T02:26:19;21.65;;;5.50;;
79088;SDS011;68489;50.286;9.452;2024-03-06T02:28:48;19.17;;;5.57;;
79088;SDS011;68489;50.286;9.452;2024-03-06T02:31:17;23.95;;;6.55;;
79088;SDS011;68489;50.286;9.452;2024-03-06T02:33:43;23.65;;;6.60;;
79088;SDS011;68489;50.286;9.452;2024-03-06T02:36:09;23.80;;;7.07;;
79088;SDS011;68489;50.286;9.452;2024-03-06T02:38:38;20.30;;;5.60;;
79088;SDS011;68489;50.286;9.452;2024-03-06T02:41:03;21.27;;;4.80;;
79088;SDS011;68489;50.286;9.452;2024-03-06T02:43:29;19.52;;;4.60;;
79088;SDS011;68489;50.286;9.452;2024-03-06T02:45:54;21.40;;;6.32;;
79088;SDS011;68489;50.286;9.452;2024-03-06T02:48:19;16.30;;;4.47;;
79088;SDS011;68489;50.286;9.452;2024-03-06T02:50:45;20.20;;;5.83;;
79088;SDS011;68489;50.286;9.452;2024-03-06T02:53:10;25.30;;;6.30;;
79088;SDS011;68489;50.286;9.452;2024-03-06T02:55:36;24.23;;;5.53;;
79088;SDS011;68489;50.286;9.452;2024-03-06T02:58:02;20.30;;;5.57;;
79088;SDS011;68489;50.286;9.452;2024-03-06T03:00:28;21.38;;;5.65;;
79088;SDS011;68489;50.286;9.452;2024-03-06T03:02:53;23.17;;;5.40;;
79088;SDS011;68489;50.286;9.452;2024-03-06T03:05:18;22.27;;;6.13;;
79088;SDS011;68489;50.286;9.452;2024-03-06T03:07:44;25.37;;;7.10;;
79088;SDS011;68489;50.286;9.452;2024-03-06T03:10:09;20.48;;;5.25;;
79088;SDS011;68489;50.286;9.452;2024-03-06T03:12:35;21.67;;;5.82;;
79088;SDS011;68489;50.286;9.452;2024-03-06T03:15:03;22.67;;;7.07;;
79088;SDS011;68489;50.286;9.452;2024-03-06T03:17:29;23.77;;;6.32;;
79088;SDS011;68489;50.286;9.452;2024-03-06T03:19:54;26.13;;;6.50;;
79088;SDS011;68489;50.286;9.452;2024-03-06T03:22:19;27.15;;;6.75;;
79088;SDS011;68489;50.286;9.452;2024-03-06T03:24:45;29.15;;;7.05;;
79088;SDS011;68489;50.286;9.452;2024-03-06T03:27:10;22.17;;;5.80;;
79088;SDS011;68489;50.286;9.452;2024-03-06T03:29:36;23.73;;;5.93;;
79088;SDS011;68489;50.286;9.452;2024-03-06T03:32:01;22.63;;;5.63;;
79088;SDS011;68489;50.286;9.452;2024-03-06T03:34:26;28.10;;;7.55;;
79088;SDS011;68489;50.286;9.452;2024-03-06T03:36:52;23.80;;;6.95;;
79088;SDS011;68489;50.286;9.452;2024-03-06T03:39:17;28.73;;;6.57;;
79088;SDS011;68489;50.286;9.452;2024-03-06T03:41:45;23.95;;;6.63;;
79088;SDS011;68489;50.286;9.452;2024-03-06T03:44:14;25.52;;;6.82;;
79088;SDS011;68489;50.286;9.452;2024-03-06T03:46:41;23.20;;;6.75;;
79088;SDS011;68489;50.286;9.452;2024-03-06T03:49:06;28.92;;;7.20;;
79088;SDS011;68489;50.286;9.452;2024-03-06T03:51:33;25.83;;;7.80;;
79088;SDS011;68489;50.286;9.452;2024-03-06T03:53:59;22.50;;;6.20;;
79088;SDS011;68489;50.286;9.452;2024-03-06T03:56:24;26.63;;;6.53;;
79088;SDS011;68489;50.286;9.452;2024-03-06T03:58:49;21.13;;;6.35;;
79088;SDS011;68489;50.286;9.452;2024-03-06T04:01:15;21.97;;;5.97;;
79088;SDS011;68489;50.286;9.452;2024-03-06T04:03:40;23.25;;;6.50;;
79088;SDS011;68489;50.286;9.452;2024-03-06T04:06:07;28.20;;;5.93;;
79088;SDS011;68489;50.286;9.452;2024-03-06T04:08:33;25.13;;;6.47;;
79088;SDS011;68489;50.286;9.452;2024-03-06T04:10:59;26.48;;;6.93;;
79088;SDS011;68489;50.286;9.452;2024-03-06T04:13:25;22.98;;;6.25;;
79088;SDS011;68489;50.286;9.452;2024-03-06T04:15:50;23.95;;;5.63;;
79088;SDS011;68489;50.286;9.452;2024-03-06T04:18:16;21.23;;;5.57;;
79088;SDS011;68489;50.286;9.452;2024-03-06T04:20:41;18.17;;;5.60;;
79088;SDS011;68489;50.286;9.452;2024-03-06T04:23:07;30.27;;;8.75;;
79088;SDS011;68489;50.286;9.452;2024-03-06T04:25:32;26.37;;;6.40;;
79088;SDS011;68489;50.286;9.452;2024-03-06T04:27:58;23.40;;;5.65;;
79088;SDS011;68489;50.286;9.452;2024-03-06T04:30:23;19.10;;;5.50;;
79088;SDS011;68489;50.286;9.452;2024-03-06T04:32:49;22.88;;;5.45;;
79088;SDS011;68489;50.286;9.452;2024-03-06T04:35:15;16.33;;;5.03;;
79088;SDS011;68489;50.286;9.452;2024-03-06T04:37:40;18.13;;;4.10;;
79088;SDS011;68489;50.286;9.452;2024-03-06T04:40:06;18.73;;;5.20;;
79088;SDS011;68489;50.286;9.452;2024-03-06T04:42:33;25.52;;;5.93;;
79088;SDS011;68489;50.286;9.452;2024-03-06T04:45:01;24.52;;;5.70;;
79088;SDS011;68489;50.286;9.452;2024-03-06T04:47:37;30.73;;;6.05;;
79088;SDS011;68489;50.286;9.452;2024-03-06T04:50:03;34.53;;;5.78;;
79088;SDS011;68489;50.286;9.452;2024-03-06T04:52:28;80.30;;;8.13;;
79088;SDS011;68489;50.286;9.452;2024-03-06T04:54:53;48.53;;;5.40;;
79088;SDS011;68489;50.286;9.452;2024-03-06T04:57:19;14.63;;;3.20;;
79088;SDS011;68489;50.286;9.452;2024-03-06T04:59:44;14.10;;;2.92;;
79088;SDS011;68489;50.286;9.452;2024-03-06T05:02:10;17.08;;;3.35;;
79088;SDS011;68489;50.286;9.452;2024-03-06T05:04:35;9.00;;;2.40;;
79088;SDS011;68489;50.286;9.452;2024-03-06T05:07:01;10.98;;;3.28;;
79088;SDS011;68489;50.286;9.452;2024-03-06T05:09:26;12.88;;;2.78;;
79088;SDS011;68489;50.286;9.452;2024-03-06T05:11:52;23.73;;;4.33;;
79088;SDS011;68489;50.286;9.452;2024-03-06T05:14:17;18.00;;;4.53;;
79088;SDS011;68489;50.286;9.452;2024-03-06T05:16:42;20.45;;;4.22;;
79088;SDS011;68489;50.286;9.452;2024-03-06T05:19:08;16.40;;;4.70;;
79088;SDS011;68489;50.286;9.452;2024-03-06T05:21:36;19.08;;;4.65;;
79088;SDS011;68489;50.286;9.452;2024-03-06T05:24:01;19.08;;;6.47;;
79088;SDS011;68489;50.286;9.452;2024-03-06T05:26:26;18.75;;;5.75;;
79088;SDS011;68489;50.286;9.452;2024-03-06T05:28:52;22.10;;;5.77;;
79088;SDS011;68489;50.286;9.452;2024-03-06T05:31:18;20.10;;;5.40;;
79088;SDS011;68489;50.286;9.452;2024-03-06T05:33:44;23.33;;;6.30;;
79088;SDS011;68489;50.286;9.452;2024-03-06T05:36:10;21.70;;;6.22;;
79088;SDS011;68489;50.286;9.452;2024-03-06T05:38:35;20.75;;;5.40;;
79088;SDS011;68489;50.286;9.452;2024-03-06T05:41:01;20.35;;;6.65;;
79088;SDS011;68489;50.286;9.452;2024-03-06T05:43:27;22.45;;;5.78;;
79088;SDS011;68489;50.286;9.452;2024-03-06T05:45:52;23.67;;;5.55;;
79088;SDS011;68489;50.286;9.452;2024-03-06T05:48:18;20.63;;;5.57;;
79088;SDS011;68489;50.286;9.452;2024-03-06T05:50:43;21.10;;;6.10;;
79088;SDS011;68489;50.286;9.452;2024-03-06T05:53:09;18.88;;;5.35;;
79088;SDS011;68489;50.286;9.452;2024-03-06T05:55:36;19.98;;;5.20;;
79088;SDS011;68489;50.286;9.452;2024-03-06T05:58:01;21.92;;;5.88;;
79088;SDS011;68489;50.286;9.452;2024-03-06T06:00:27;17.85;;;4.88;;
79088;SDS011;68489;50.286;9.452;2024-03-06T06:02:52;17.45;;;4.97;;
79088;SDS011;68489;50.286;9.452;2024-03-06T06:05:18;18.88;;;5.28;;
79088;SDS011;68489;50.286;9.452;2024-03-06T06:07:47;18.63;;;5.30;;
79088;SDS011;68489;50.286;9.452;2024-03-06T06:10:13;22.40;;;6.13;;
79088;SDS011;68489;50.286;9.452;2024-03-06T06:12:39;27.20;;;6.63;;
79088;SDS011;68489;50.286;9.452;2024-03-06T06:15:04;25.52;;;7.00;;
79088;SDS011;68489;50.286;9.452;2024-03-06T06:17:32;19.83;;;5.35;;
79088;SDS011;68489;50.286;9.452;2024-03-06T06:19:57;21.10;;;5.68;;
79088;SDS011;68489;50.286;9.452;2024-03-06T06:22:22;20.23;;;5.93;;
79088;SDS011;68489;50.286;9.452;2024-03-06T06:24:48;22.67;;;6.40;;
79088;SDS011;68489;50.286;9.452;2024-03-06T06:27:13;19.00;;;5.95;;
79088;SDS011;68489;50.286;9.452;2024-03-06T06:29:39;21.48;;;6.78;;
79088;SDS011;68489;50.286;9.452;2024-03-06T06:32:04;25.08;;;5.78;;
79088;SDS011;68489;50.286;9.452;2024-03-06T06:34:29;18.65;;;5.30;;
79088;SDS011;68489;50.286;9.452;2024-03-06T06:36:56;22.70;;;6.13;;
79088;SDS011;68489;50.286;9.452;2024-03-06T06:39:21;17.73;;;4.70;;
79088;SDS011;68489;50.286;9.452;2024-03-06T06:41:47;17.90;;;4.27;;
79088;SDS011;68489;50.286;9.452;2024-03-06T06:44:12;21.87;;;6.00;;
79088;SDS011;68489;50.286;9.452;2024-03-06T06:46:38;20.67;;;4.95;;
79088;SDS011;68489;50.286;9.452;2024-03-06T06:49:04;20.35;;;5.07;;
79088;SDS011;68489;50.286;9.452;2024-03-06T06:51:29;23.83;;;6.63;;
79088;SDS011;68489;50.286;9.452;2024-03-06T06:53:55;18.42;;;4.90;;
79088;SDS011;68489;50.286;9.452;2024-03-06T06:56:20;23.23;;;5.78;;
79088;SDS011;68489;50.286;9.452;2024-03-06T06:58:48;23.92;;;7.03;;
79088;SDS011;68489;50.286;9.452;2024-03-06T07:01:14;23.15;;;6.97;;
79088;SDS011;68489;50.286;9.452;2024-03-06T07:03:41;21.73;;;5.82;;
79088;SDS011;68489;50.286;9.452;2024-03-06T07:06:07;26.90;;;7.07;;
79088;SDS011;68489;50.286;9.452;2024-03-06T07:08:32;22.60;;;5.32;;
79088;SDS011;68489;50.286;9.452;2024-03-06T07:10:58;20.55;;;6.22;;
79088;SDS011;68489;50.286;9.452;2024-03-06T07:13:23;21.23;;;6.00;;
79088;SDS011;68489;50.286;9.452;2024-03-06T07:15:49;21.95;;;6.00;;
79088;SDS011;68489;50.286;9.452;2024-03-06T07:18:14;23.67;;;6.20;;
79088;SDS011;68489;50.286;9.452;2024-03-06T07:20:40;21.83;;;5.60;;
79088;SDS011;68489;50.286;9.452;2024-03-06T07:23:06;21.30;;;5.80;;
79088;SDS011;68489;50.286;9.452;2024-03-06T07:25:32;20.02;;;5.43;;
79088;SDS011;68489;50.286;9.452;2024-03-06T07:27:58;23.77;;;6.00;;
79088;SDS011;68489;50.286;9.452;2024-03-06T07:30:23;25.83;;;5.97;;
79088;SDS011;68489;50.286;9.452;2024-03-06T07:32:48;19.70;;;5.20;;
79088;SDS011;68489;50.286;9.452;2024-03-06T07:35:14;19.83;;;5.35;;
79088;SDS011;68489;50.286;9.452;2024-03-06T07:37:39;19.80;;;4.97;;
79088;SDS011;68489;50.286;9.452;2024-03-06T07:40:06;21.27;;;5.72;;
79088;SDS011;68489;50.286;9.452;2024-03-06T07:42:32;20.67;;;5.18;;
79088;SDS011;68489;50.286;9.452;2024-03-06T07:44:58;17.40;;;5.25;;
79088;SDS011;68489;50.286;9.452;2024-03-06T07:47:23;18.98;;;4.68;;
79088;SDS011;68489;50.286;9.452;2024-03-06T07:49:49;22.85;;;5.22;;
79088;SDS011;68489;50.286;9.452;2024-03-06T07:52:15;19.88;;;6.15;;
79088;SDS011;68489;50.286;9.452;2024-03-06T07:54:41;22.88;;;5.07;;
79088;SDS011;68489;50.286;9.452;2024-03-06T07:57:06;26.30;;;6.03;;
79088;SDS011;68489;50.286;9.452;2024-03-06T07:59:31;19.43;;;4.77;;
79088;SDS011;68489;50.286;9.452;2024-03-06T08:01:57;18.25;;;5.18;;
79088;SDS011;68489;50.286;9.452;2024-03-06T08:04:22;20.38;;;5.25;;
79088;SDS011;68489;50.286;9.452;2024-03-06T08:06:48;22.20;;;5.90;;
79088;SDS011;68489;50.286;9.452;2024-03-06T08:09:13;20.08;;;5.07;;
79088;SDS011;68489;50.286;9.452;2024-03-06T08:11:41;21.98;;;5.82;;
79088;SDS011;68489;50.286;9.452;2024-03-06T08:14:07;21.88;;;6.80;;
79088;SDS011;68489;50.286;9.452;2024-03-06T08:16:32;17.75;;;5.30;;
79088;SDS011;68489;50.286;9.452;2024-03-06T08:18:59;21.83;;;5.22;;
79088;SDS011;68489;50.286;9.452;2024-03-06T08:21:25;20.77;;;4.65;;
79088;SDS011;68489;50.286;9.452;2024-03-06T08:23:50;21.75;;;5.97;;
79088;SDS011;68489;50.286;9.452;2024-03-06T08:26:16;21.40;;;5.93;;
79088;SDS011;68489;50.286;9.452;2024-03-06T08:28:41;24.10;;;5.63;;
79088;SDS011;68489;50.286;9.452;2024-03-06T08:31:07;23.63;;;6.45;;
79088;SDS011;68489;50.286;9.452;2024-03-06T08:33:33;19.02;;;5.07;;
79088;SDS011;68489;50.286;9.452;2024-03-06T08:35:58;17.73;;;5.15;;
79088;SDS011;68489;50.286;9.452;2024-03-06T08:38:24;20.40;;;5.60;;
79088;SDS011;68489;50.286;9.452;2024-03-06T08:40:50;21.42;;;5.03;;
79088;SDS011;68489;50.286;9.452;2024-03-06T08:43:16;17.88;;;4.45;;
79088;SDS011;68489;50.286;9.452;2024-03-06T08:45:41;19.63;;;5.40;;
79088;SDS011;68489;50.286;9.452;2024-03-06T08:48:07;20.63;;;6.57;;
79088;SDS011;68489;50.286;9.452;2024-03-06T08:50:33;19.50;;;6.20;;
79088;SDS011;68489;50.286;9.452;2024-03-06T08:52:59;19.42;;;6.15;;
79088;SDS011;68489;50.286;9.452;2024-03-06T08:55:24;18.10;;;5.17;;
79088;SDS011;68489;50.286;9.452;2024-03-06T08:57:49;19.03;;;5.00;;
79088;SDS011;68489;50.286;9.452;2024-03-06T09:00:15;21.00;;;5.88;;
79088;SDS011;68489;50.286;9.452;2024-03-06T09:02:41;21.05;;;6.68;;
79088;SDS011;68489;50.286;9.452;2024-03-06T09:05:07;18.52;;;5.95;;
79088;SDS011;68489;50.286;9.452;2024-03-06T09:07:35;20.88;;;5.75;;
79088;SDS011;68489;50.286;9.452;2024-03-06T09:10:12;19.15;;;5.25;;
79088;SDS011;68489;50.286;9.452;2024-03-06T09:12:38;20.38;;;5.80;;
79088;SDS011;68489;50.286;9.452;2024-03-06T09:15:04;18.73;;;5.70;;
79088;SDS011;68489;50.286;9.452;2024-03-06T09:17:32;19.88;;;6.03;;
79088;SDS011;68489;50.286;9.452;2024-03-06T09:19:57;18.05;;;5.68;;
79088;SDS011;68489;50.286;9.452;2024-03-06T09:22:23;17.70;;;5.28;;
79088;SDS011;68489;50.286;9.452;2024-03-06T09:24:49;17.02;;;5.13;;
79088;SDS011;68489;50.286;9.452;2024-03-06T09:27:14;17.02;;;5.40;;
79088;SDS011;68489;50.286;9.452;2024-03-06T09:29:41;19.98;;;4.47;;
79088;SDS011;68489;50.286;9.452;2024-03-06T09:32:07;18.65;;;5.38;;
79088;SDS011;68489;50.286;9.452;2024-03-06T09:34:32;16.98;;;4.85;;
79088;SDS011;68489;50.286;9.452;2024-03-06T09:36:57;19.40;;;5.53;;
79088;SDS011;68489;50.286;9.452;2024-03-06T09:39:23;14.68;;;4.70;;
79088;SDS011;68489;50.286;9.452;2024-03-06T09:41:52;14.20;;;4.13;;
79088;SDS011;68489;50.286;9.452;2024-03-06T09:44:18;17.08;;;4.82;;
79088;SDS011;68489;50.286;9.452;2024-03-06T09:46:45;18.40;;;5.07;;
79088;SDS011;68489;50.286;9.452;2024-03-06T09:49:17;13.88;;;4.30;;
79088;SDS011;68489;50.286;9.452;2024-03-06T09:51:44;19.75;;;5.65;;
79088;SDS011;68489;50.286;9.452;2024-03-06T09:54:14;17.63;;;4.75;;
79088;SDS011;68489;50.286;9.452;2024-03-06T09:56:40;17.02;;;4.68;;
79088;SDS011;68489;50.286;9.452;2024-03-06T09:59:08;13.93;;;3.40;;
79088;SDS011;68489;50.286;9.452;2024-03-06T10:01:33;13.60;;;3.60;;
79088;SDS011;68489;50.286;9.452;2024-03-06T10:04:21;11.90;;;3.30;;
79088;SDS011;68489;50.286;9.452;2024-03-06T10:06:52;13.10;;;3.90;;
79088;SDS011;68489;50.286;9.452;2024-03-06T10:09:20;13.93;;;4.13;;
79088;SDS011;68489;50.286;9.452;2024-03-06T10:11:46;11.82;;;3.10;;
79088;SDS011;68489;50.286;9.452;2024-03-06T10:14:11;13.85;;;3.55;;
79088;SDS011;68489;50.286;9.452;2024-03-06T10:16:37;16.95;;;4.10;;
79088;SDS011;68489;50.286;9.452;2024-03-06T10:19:16;12.75;;;4.03;;
79088;SDS011;68489;50.286;9.452;2024-03-06T10:21:43;16.20;;;4.13;;
79088;SDS011;68489;50.286;9.452;2024-03-06T10:24:13;13.10;;;4.30;;
79088;SDS011;68489;50.286;9.452;2024-03-06T10:26:43;11.77;;;3.45;;
79088;SDS011;68489;50.286;9.452;2024-03-06T10:29:09;11.90;;;3.23;;
79088;SDS011;68489;50.286;9.452;2024-03-06T10:31:34;10.77;;;2.90;;
79088;SDS011;68489;50.286;9.452;2024-03-06T10:33:59;10.13;;;2.37;;
79088;SDS011;68489;50.286;9.452;2024-03-06T10:36:31;11.00;;;3.40;;
79088;SDS011;68489;50.286;9.452;2024-03-06T10:38:57;12.85;;;3.88;;
79088;SDS011;68489;50.286;9.452;2024-03-06T10:41:26;14.00;;;3.25;;
79088;SDS011;68489;50.286;9.452;2024-03-06T10:43:58;13.27;;;3.47;;
79088;SDS011;68489;50.286;9.452;2024-03-06T10:46:25;14.02;;;4.53;;
79088;SDS011;68489;50.286;9.452;2024-03-06T10:48:52;12.73;;;4.32;;
79088;SDS011;68489;50.286;9.452;2024-03-06T10:51:20;11.45;;;3.08;;
79088;SDS011;68489;50.286;9.452;2024-03-06T10:53:46;15.48;;;5.03;;
79088;SDS011;68489;50.286;9.452;2024-03-06T10:56:13;15.15;;;4.28;;
79088;SDS011;68489;50.286;9.452;2024-03-06T10:58:40;11.93;;;4.40;;
79088;SDS011;68489;50.286;9.452;2024-03-06T11:01:06;13.13;;;3.78;;
79088;SDS011;68489;50.286;9.452;2024-03-06T11:03:33;12.50;;;4.20;;
79088;SDS011;68489;50.286;9.452;2024-03-06T11:06:00;12.93;;;4.30;;
79088;SDS011;68489;50.286;9.452;2024-03-06T11:08:27;12.25;;;4.00;;
79088;SDS011;68489;50.286;9.452;2024-03-06T11:10:53;13.25;;;4.68;;
79088;SDS011;68489;50.286;9.452;2024-03-06T11:13:39;12.48;;;3.60;;
79088;SDS011;68489;50.286;9.452;2024-03-06T11:16:05;13.95;;;3.72;;
79088;SDS011;68489;50.286;9.452;2024-03-06T11:23:26;12.23;;;4.40;;
79088;SDS011;68489;50.286;9.452;2024-03-06T11:28:23;12.57;;;3.95;;
79088;SDS011;68489;50.286;9.452;2024-03-06T11:30:55;12.30;;;3.53;;
79088;SDS011;68489;50.286;9.452;2024-03-06T11:33:35;11.45;;;3.92;;
79088;SDS011;68489;50.286;9.452;2024-03-06T11:36:16;14.20;;;4.32;;
79088;SDS011;68489;50.286;9.452;2024-03-06T11:41:28;11.95;;;3.83;;
79088;SDS011;68489;50.286;9.452;2024-03-06T11:43:55;12.20;;;4.25;;
79088;SDS011;68489;50.286;9.452;2024-03-06T11:46:40;10.65;;;3.83;;
79088;SDS011;68489;50.286;9.452;2024-03-06T11:49:16;12.20;;;3.72;;
79088;SDS011;68489;50.286;9.452;2024-03-06T11:51:44;14.85;;;4.38;;
79088;SDS011;68489;50.286;9.452;2024-03-06T11:54:10;13.48;;;4.25;;
79088;SDS011;68489;50.286;9.452;2024-03-06T11:56:35;12.60;;;4.07;;
79088;SDS011;68489;50.286;9.452;2024-03-06T11:59:03;13.40;;;4.13;;
79088;SDS011;68489;50.286;9.452;2024-03-06T12:01:28;14.00;;;4.27;;
79088;SDS011;68489;50.286;9.452;2024-03-06T12:03:55;11.88;;;3.95;;
79088;SDS011;68489;50.286;9.452;2024-03-06T12:06:20;12.73;;;4.15;;
79088;SDS011;68489;50.286;9.452;2024-03-06T12:08:47;13.50;;;4.32;;
79088;SDS011;68489;50.286;9.452;2024-03-06T12:11:13;12.97;;;4.13;;
79088;SDS011;68489;50.286;9.452;2024-03-06T12:13:38;13.50;;;4.68;;
79088;SDS011;68489;50.286;9.452;2024-03-06T12:16:04;11.97;;;3.93;;
79088;SDS011;68489;50.286;9.452;2024-03-06T12:18:31;11.32;;;3.70;;
79088;SDS011;68489;50.286;9.452;2024-03-06T12:20:56;13.52;;;4.47;;
79088;SDS011;68489;50.286;9.452;2024-03-06T12:23:24;14.98;;;4.50;;
79088;SDS011;68489;50.286;9.452;2024-03-06T12:26:01;10.48;;;3.28;;
79088;SDS011;68489;50.286;9.452;2024-03-06T12:28:31;14.13;;;4.68;;
79088;SDS011;68489;50.286;9.452;2024-03-06T12:30:57;15.60;;;4.28;;
79088;SDS011;68489;50.286;9.452;2024-03-06T12:33:26;13.98;;;4.05;;
79088;SDS011;68489;50.286;9.452;2024-03-06T12:36:01;12.15;;;4.00;;
79088;SDS011;68489;50.286;9.452;2024-03-06T12:38:28;16.90;;;5.75;;
79088;SDS011;68489;50.286;9.452;2024-03-06T12:40:54;14.70;;;4.97;;
79088;SDS011;68489;50.286;9.452;2024-03-06T12:43:19;14.75;;;5.10;;
79088;SDS011;68489;50.286;9.452;2024-03-06T12:45:45;15.17;;;5.03;;
79088;SDS011;68489;50.286;9.452;2024-03-06T12:48:10;13.00;;;4.63;;
79088;SDS011;68489;50.286;9.452;2024-03-06T12:50:37;14.65;;;5.05;;
79088;SDS011;68489;50.286;9.452;2024-03-06T12:53:03;15.15;;;5.28;;
79088;SDS011;68489;50.286;9.452;2024-03-06T12:55:29;13.10;;;4.88;;
79088;SDS011;68489;50.286;9.452;2024-03-06T12:57:56;14.05;;;5.15;;
79088;SDS011;68489;50.286;9.452;2024-03-06T13:00:22;15.95;;;5.70;;
79088;SDS011;68489;50.286;9.452;2024-03-06T13:02:47;15.65;;;5.30;;
79088;SDS011;68489;50.286;9.452;2024-03-06T13:05:13;13.52;;;4.18;;
79088;SDS011;68489;50.286;9.452;2024-03-06T13:07:38;14.18;;;4.28;;
79088;SDS011;68489;50.286;9.452;2024-03-06T13:10:04;12.32;;;4.65;;
79088;SDS011;68489;50.286;9.452;2024-03-06T13:12:30;12.90;;;3.83;;
79088;SDS011;68489;50.286;9.452;2024-03-06T13:14:55;15.35;;;4.65;;
79088;SDS011;68489;50.286;9.452;2024-03-06T13:17:21;12.90;;;3.85;;
79088;SDS011;68489;50.286;9.452;2024-03-06T13:19:46;18.95;;;5.88;;
79088;SDS011;68489;50.286;9.452;2024-03-06T13:22:12;15.23;;;4.97;;
79088;SDS011;68489;50.286;9.452;2024-03-06T13:24:37;14.10;;;4.63;;
79088;SDS011;68489;50.286;9.452;2024-03-06T13:27:03;13.80;;;4.32;;
79088;SDS011;68489;50.286;9.452;2024-03-06T13:29:29;15.23;;;4.18;;
79088;SDS011;68489;50.286;9.452;2024-03-06T13:31:54;15.40;;;4.40;;
79088;SDS011;68489;50.286;9.452;2024-03-06T13:34:20;15.77;;;5.55;;
79088;SDS011;68489;50.286;9.452;2024-03-06T13:36:45;14.97;;;4.77;;
79088;SDS011;68489;50.286;9.452;2024-03-06T13:39:10;14.90;;;4.93;;
79088;SDS011;68489;50.286;9.452;2024-03-06T13:41:36;17.55;;;5.18;;
79088;SDS011;68489;50.286;9.452;2024-03-06T13:44:01;15.00;;;4.90;;
79088;SDS011;68489;50.286;9.452;2024-03-06T13:46:26;14.70;;;5.50;;
79088;SDS011;68489;50.286;9.452;2024-03-06T13:48:52;16.73;;;5.77;;
79088;SDS011;68489;50.286;9.452;2024-03-06T13:51:17;17.80;;;5.90;;
79088;SDS011;68489;50.286;9.452;2024-03-06T13:53:42;21.15;;;6.20;;
79088;SDS011;68489;50.286;9.452;2024-03-06T13:56:08;15.80;;;5.70;;
79088;SDS011;68489;50.286;9.452;2024-03-06T13:58:33;17.48;;;6.55;;
79088;SDS011;68489;50.286;9.452;2024-03-06T14:00:59;18.38;;;6.10;;
79088;SDS011;68489;50.286;9.452;2024-03-06T14:03:24;17.23;;;5.50;;
79088;SDS011;68489;50.286;9.452;2024-03-06T14:05:50;20.90;;;6.15;;
79088;SDS011;68489;50.286;9.452;2024-03-06T14:08:16;18.58;;;6.28;;
79088;SDS011;68489;50.286;9.452;2024-03-06T14:10:42;18.23;;;6.57;;
79088;SDS011;68489;50.286;9.452;2024-03-06T14:13:07;17.77;;;5.85;;
79088;SDS011;68489;50.286;9.452;2024-03-06T14:15:33;19.83;;;5.93;;
79088;SDS011;68489;50.286;9.452;2024-03-06T14:17:59;17.75;;;5.63;;
79088;SDS011;68489;50.286;9.452;2024-03-06T14:20:27;18.88;;;6.22;;
79088;SDS011;68489;50.286;9.452;2024-03-06T14:22:52;17.55;;;6.70;;
79088;SDS011;68489;50.286;9.452;2024-03-06T14:25:18;17.63;;;5.82;;
79088;SDS011;68489;50.286;9.452;2024-03-06T14:27:44;16.98;;;5.82;;
79088;SDS011;68489;50.286;9.452;2024-03-06T14:30:10;17.77;;;6.07;;
79088;SDS011;68489;50.286;9.452;2024-03-06T14:32:36;19.42;;;7.15;;
79088;SDS011;68489;50.286;9.452;2024-03-06T14:35:02;16.85;;;6.35;;
79088;SDS011;68489;50.286;9.452;2024-03-06T14:37:29;18.10;;;5.70;;